createdAt,value
2022-08-12T00:00:09.076Z,102125.06
2022-08-12T00:02:55.175Z,102118.97
2022-08-12T00:06:02.017Z,102115.50
2022-08-12T00:08:52.386Z,102117.38
2022-08-12T00:11:38.756Z,102110.38
2022-08-12T00:14:25.549Z,102111.34
2022-08-12T00:17:12.014Z,102114.06
2022-08-12T00:19:57.964Z,102110.63
2022-08-12T00:22:46.729Z,102120.50
2022-08-12T00:26:21.426Z,102120.66
2022-08-12T00:29:02.105Z,102123.44
2022-08-12T00:31:48.100Z,102114.63
2022-08-12T00:34:34.786Z,102116.44
2022-08-12T00:37:21.554Z,102113.88
2022-08-12T00:40:11.377Z,102104.22
2022-08-12T00:42:42.013Z,102115.81
2022-08-12T00:45:11.590Z,102108.78
2022-08-12T00:47:40.792Z,102105.28
2022-08-12T00:50:17.723Z,102112.41
2022-08-12T00:52:46.935Z,102105.44
2022-08-12T00:55:20.347Z,102113.47
2022-08-12T00:57:50.757Z,102108.22
2022-08-12T01:00:22.723Z,102107.41
2022-08-12T01:02:57.641Z,102114.56
2022-08-12T01:05:45.209Z,102107.56
2022-08-12T01:08:42.917Z,102112.13
2022-08-12T01:11:32.837Z,102108.69
2022-08-12T01:14:03.426Z,102112.31
2022-08-12T01:16:31.850Z,102105.31
2022-08-12T01:19:01.052Z,102111.59
2022-08-12T01:21:58.766Z,102109.03
2022-08-12T01:24:56.010Z,102109.09
2022-08-12T01:27:25.755Z,102105.59
2022-08-12T01:29:55.503Z,102102.13
2022-08-12T01:32:25.057Z,102102.19
2022-08-12T01:35:02.951Z,102113.78
2022-08-12T01:37:36.629Z,102113.84
2022-08-12T01:40:35.436Z,102116.56
2022-08-12T01:43:11.712Z,102114.84
2022-08-12T01:46:04.570Z,102114.91
2022-08-12T01:48:53.757Z,102108.78
2022-08-12T01:52:16.459Z,102102.59
2022-08-12T01:54:28.900Z,102104.41
2022-08-12T01:57:10.958Z,102109.78
2022-08-12T01:59:49.649Z,102108.94
2022-08-12T02:02:23.519Z,102107.19
2022-08-12T02:05:23.488Z,102103.72
2022-08-12T02:08:34.369Z,102106.47
2022-08-12T02:11:19.994Z,102101.19
2022-08-12T02:14:20.311Z,102099.44
2022-08-12T02:17:05.242Z,102102.16
2022-08-12T02:19:49.547Z,102104.81
2022-08-12T02:22:29.411Z,102103.06
2022-08-12T02:25:08.786Z,102101.34
2022-08-12T02:27:45.602Z,102106.72
2022-08-12T02:30:19.276Z,102100.53
2022-08-12T02:32:51.576Z,102101.47
2022-08-12T02:35:22.981Z,102093.50
2022-08-12T02:37:53.994Z,102100.59
2022-08-12T02:40:24.217Z,102099.78
2022-08-12T02:42:56.882Z,102100.66
2022-08-12T02:45:34.630Z,102102.50
2022-08-12T02:48:10.480Z,102105.22
2022-08-12T02:50:46.935Z,102097.25
2022-08-12T02:53:16.404Z,102099.97
2022-08-12T02:55:46.744Z,102096.44
2022-08-12T02:58:15.844Z,102101.81
2022-08-12T03:00:49.712Z,102094.72
2022-08-12T03:03:20.636Z,102094.75
2022-08-12T03:06:02.590Z,102090.38
2022-08-12T03:08:39.757Z,102090.38
2022-08-12T03:11:16.968Z,102091.25
2022-08-12T03:13:52.063Z,102085.94
2022-08-12T03:16:23.211Z,102082.47
2022-08-12T03:18:52.222Z,102090.41
2022-08-12T03:21:53.159Z,102086.00
2022-08-12T03:24:11.534Z,102088.66
2022-08-12T03:26:39.810Z,102093.09
2022-08-12T03:29:08.594Z,102092.19
2022-08-12T03:31:38.151Z,102087.78
2022-08-12T03:34:11.967Z,102084.22
2022-08-12T03:36:42.539Z,102080.69
2022-08-12T03:39:35.995Z,102078.97
2022-08-12T03:42:17.222Z,102081.66
2022-08-12T03:45:14.206Z,102070.19
2022-08-12T03:48:08.251Z,102077.28
2022-08-12T03:50:55.901Z,102079.06
2022-08-12T03:53:45.835Z,102083.56
2022-08-12T03:56:32.167Z,102088.00
2022-08-12T03:59:20.707Z,102086.25
2022-08-12T04:01:55.202Z,102088.03
2022-08-12T04:04:26.778Z,102077.44
2022-08-12T04:06:57.951Z,102082.78
2022-08-12T04:09:26.518Z,102083.66
2022-08-12T04:12:12.330Z,102079.25
2022-08-12T04:14:40.630Z,102072.22
2022-08-12T04:17:09.386Z,102075.75
2022-08-12T04:19:39.416Z,102074.00
2022-08-12T04:22:07.532Z,102073.13
2022-08-12T04:24:36.833Z,102077.56
2022-08-12T04:27:12.370Z,102080.22
2022-08-12T04:30:21.111Z,102080.22
2022-08-12T04:32:29.851Z,102075.78
2022-08-12T04:34:59.296Z,102077.56
2022-08-12T04:37:27.696Z,102076.66
2022-08-12T04:39:56.373Z,102070.44
2022-08-12T04:42:25.466Z,102073.03
2022-08-12T04:44:54.081Z,102073.84
2022-08-12T04:47:24.620Z,102078.25
2022-08-12T04:49:53.007Z,102070.25
2022-08-12T04:52:23.934Z,102071.97
2022-08-12T04:54:53.249Z,102069.22
2022-08-12T04:57:21.380Z,102073.53
2022-08-12T04:59:49.577Z,102081.25
2022-08-12T05:02:21.599Z,102074.78
2022-08-12T05:04:53.078Z,102074.63
2022-08-12T05:07:23.980Z,102071.03
2022-08-12T05:09:58.981Z,102077.22
2022-08-12T05:12:37.183Z,102066.53
2022-08-12T05:15:27.704Z,102068.25
2022-08-12T05:18:00.254Z,102071.72
2022-08-12T05:20:30.902Z,102073.44
2022-08-12T05:23:13.376Z,102074.22
2022-08-12T05:25:43.293Z,102072.41
2022-08-12T05:28:13.036Z,102069.66
2022-08-12T05:30:43.858Z,102075.75
2022-08-12T05:33:15.548Z,102072.97
2022-08-12T05:35:47.678Z,102074.66
2022-08-12T05:38:39.709Z,102073.63
2022-08-12T05:41:19.106Z,102080.59
2022-08-12T05:43:51.151Z,102087.56
2022-08-12T05:46:20.170Z,102082.09
2022-08-12T05:48:49.650Z,102084.63
2022-08-12T05:51:18.813Z,102088.00
2022-08-12T05:53:48.431Z,102091.41
2022-08-12T05:56:27.002Z,102092.16
2022-08-12T05:58:56.019Z,102098.22
2022-08-12T06:02:11.560Z,102091.84
2022-08-12T06:04:16.878Z,102099.66
2022-08-12T06:06:51.287Z,102098.59
2022-08-12T06:09:22.419Z,102095.75
2022-08-12T06:12:04.253Z,102097.28
2022-08-12T06:14:36.534Z,102099.75
2022-08-12T06:17:07.506Z,102094.22
2022-08-12T06:20:27.547Z,102093.16
2022-08-12T06:22:26.634Z,102092.00
2022-08-12T06:24:56.161Z,102096.25
2022-08-12T06:27:24.355Z,102095.09
2022-08-12T06:30:08.907Z,102090.44
2022-08-12T06:32:51.687Z,102085.72
2022-08-12T06:35:47.916Z,102087.19
2022-08-12T06:38:19.588Z,102094.00
2022-08-12T06:41:11.940Z,102083.91
2022-08-12T06:44:06.922Z,102081.81
2022-08-12T06:46:30.526Z,102088.56
2022-08-12T06:48:59.809Z,102074.91
2022-08-12T06:51:30.314Z,102072.81
2022-08-12T06:53:59.187Z,102073.47
2022-08-12T06:56:59.770Z,102070.53
2022-08-12T06:59:17.418Z,102064.94
2022-08-12T07:01:51.369Z,102068.22
2022-08-12T07:04:38.369Z,102075.91
2022-08-12T07:07:08.663Z,102062.16
2022-08-12T07:10:01.263Z,102078.69
2022-08-12T07:12:27.774Z,102067.63
2022-08-12T07:14:57.639Z,102068.22
2022-08-12T07:17:26.074Z,102078.59
2022-08-12T07:19:58.042Z,102074.63
2022-08-12T07:22:28.750Z,102077.69
2022-08-12T07:25:10.850Z,102080.84
2022-08-12T07:27:42.276Z,102083.94
2022-08-12T07:30:12.127Z,102083.56
2022-08-12T07:32:40.387Z,102083.09
2022-08-12T07:35:09.662Z,102082.69
2022-08-12T07:37:42.558Z,102085.75
2022-08-12T07:40:12.103Z,102080.88
2022-08-12T07:42:43.596Z,102093.81
2022-08-12T07:45:12.740Z,102092.50
2022-08-12T07:47:43.302Z,102091.16
2022-08-12T07:50:12.648Z,102094.19
2022-08-12T07:52:44.184Z,102099.06
2022-08-12T07:55:14.201Z,102097.66
2022-08-12T07:57:59.223Z,102096.38
2022-08-12T08:00:30.114Z,102079.78
2022-08-12T08:02:58.844Z,102096.19
2022-08-12T08:05:31.734Z,102099.31
2022-08-12T08:08:02.310Z,102094.34
2022-08-12T08:10:31.992Z,102092.97
2022-08-12T08:13:05.025Z,102098.75
2022-08-12T08:16:01.381Z,102098.28
2022-08-12T08:18:27.593Z,102095.81
2022-08-12T08:20:57.609Z,102094.22
2022-08-12T08:23:56.545Z,102096.31
2022-08-12T08:26:28.679Z,102101.13
2022-08-12T08:28:59.573Z,102090.78
2022-08-12T08:31:27.860Z,102093.84
2022-08-12T08:34:05.273Z,102088.75
2022-08-12T08:36:39.649Z,102095.28
2022-08-12T08:39:08.077Z,102093.88
2022-08-12T08:42:19.028Z,102086.38
2022-08-12T08:44:43.883Z,102092.03
2022-08-12T08:47:15.695Z,102093.16
2022-08-12T08:49:43.857Z,102093.47
2022-08-12T08:52:12.616Z,102093.72
2022-08-12T08:55:02.885Z,102086.88
2022-08-12T08:57:42.911Z,102094.28
2022-08-12T09:00:17.391Z,102089.97
2022-08-12T09:08:27.683Z,102081.72
2022-08-12T09:10:59.806Z,102080.09
2022-08-12T09:14:10.453Z,102081.06
2022-08-12T09:16:24.001Z,102081.22
2022-08-12T09:18:53.816Z,102081.38
2022-08-12T09:21:23.399Z,102086.19
2022-08-12T09:24:05.645Z,102077.63
2022-08-12T09:26:46.578Z,102078.06
2022-08-12T09:29:15.480Z,102080.09
2022-08-12T09:32:02.803Z,102081.03
2022-08-12T09:34:36.292Z,102088.59
2022-08-12T09:37:19.295Z,102079.09
2022-08-12T09:40:06.398Z,102068.41
2022-08-12T09:46:21.186Z,102064.34
2022-08-12T09:48:40.228Z,102061.81
2022-08-12T09:51:21.876Z,102065.72
2022-08-12T09:54:08.814Z,102062.22
2022-08-12T09:56:58.551Z,102055.16
2022-08-12T10:00:15.154Z,102048.09
2022-08-12T10:02:44.708Z,102055.97
2022-08-12T10:05:13.254Z,102048.22
2022-08-12T10:07:42.261Z,102049.53
2022-08-12T10:10:25.079Z,102053.50
2022-08-12T10:13:36.006Z,102048.44
2022-08-12T10:16:21.803Z,102041.94
2022-08-12T10:18:53.718Z,102044.72
2022-08-12T10:21:36.290Z,102040.28
2022-08-12T10:24:09.356Z,102030.72
2022-08-12T10:26:57.724Z,102031.94
2022-08-12T10:30:03.067Z,102033.03
2022-08-12T10:32:44.546Z,102026.56
2022-08-12T10:35:16.979Z,102024.91
2022-08-12T10:38:33.436Z,102024.34
2022-08-12T10:40:55.679Z,102016.09
2022-08-12T10:43:55.978Z,102015.22
2022-08-12T10:46:30.373Z,102015.66
2022-08-12T10:49:05.333Z,102015.84
2022-08-12T10:51:51.515Z,102016.16
2022-08-12T10:54:27.627Z,102009.31
2022-08-12T10:56:57.771Z,102004.28
2022-08-12T11:00:01.484Z,102002.59
2022-08-12T11:04:27.681Z,101998.13
2022-08-12T11:07:02.036Z,101990.88
2022-08-12T11:08:36.997Z,101997.59
2022-08-12T11:10:42.397Z,101984.31
2022-08-12T11:13:13.864Z,101991.00
2022-08-12T11:16:04.095Z,101980.38
2022-08-12T11:18:30.707Z,101979.81
2022-08-12T11:21:00.992Z,101967.47
2022-08-12T11:23:36.781Z,101973.41
2022-08-12T11:26:08.324Z,101971.31
2022-08-12T11:28:38.484Z,101954.50
2022-08-12T11:31:13.263Z,101963.81
2022-08-12T11:34:04.239Z,101961.09
2022-08-12T11:36:32.306Z,101956.75
2022-08-12T11:39:07.924Z,101957.78
2022-08-12T11:41:43.083Z,101960.25
2022-08-12T11:44:36.782Z,101946.63
2022-08-12T11:46:59.933Z,101952.69
2022-08-12T11:49:32.366Z,101941.47
2022-08-12T11:52:27.247Z,101945.66
2022-08-12T11:54:54.352Z,101934.59
2022-08-12T11:58:42.266Z,101942.84
2022-08-12T12:03:02.602Z,101936.31
2022-08-12T12:05:41.640Z,101946.19
2022-08-12T12:08:38.851Z,101926.34
2022-08-12T12:11:10.036Z,101926.28
2022-08-12T12:14:08.031Z,101926.63
2022-08-12T12:16:29.958Z,101923.00
2022-08-12T12:18:58.246Z,101923.50
2022-08-12T12:21:47.972Z,101917.75
2022-08-12T12:24:14.509Z,101923.56
2022-08-12T12:26:59.582Z,101921.75
2022-08-12T12:30:19.169Z,101917.84
2022-08-12T12:32:28.864Z,101915.56
2022-08-12T12:35:14.334Z,101916.00
2022-08-12T12:38:04.463Z,101907.97
2022-08-12T12:40:43.856Z,101905.75
2022-08-12T12:43:12.901Z,101922.91
2022-08-12T12:45:46.382Z,101906.66
2022-08-12T12:48:15.986Z,101907.25
2022-08-12T12:50:51.611Z,101904.44
2022-08-12T12:54:05.091Z,101899.56
2022-08-12T12:56:16.529Z,101891.16
2022-08-12T12:58:44.922Z,101898.19
2022-08-12T13:01:26.610Z,101897.63
2022-08-12T13:04:01.882Z,101888.44
2022-08-12T13:06:31.981Z,101887.25
2022-08-12T13:09:03.260Z,101886.09
2022-08-12T13:11:40.775Z,101885.88
2022-08-12T13:14:28.821Z,101886.78
2022-08-12T13:17:02.598Z,101879.34
2022-08-12T13:19:37.596Z,101878.69
2022-08-12T13:22:21.034Z,101880.19
2022-08-12T13:24:55.663Z,101876.16
2022-08-12T13:27:34.861Z,101877.16
2022-08-12T13:30:11.688Z,101871.09
2022-08-12T13:32:43.632Z,101874.41
2022-08-12T13:35:33.474Z,101876.63
2022-08-12T13:38:13.966Z,101878.41
2022-08-12T13:40:42.207Z,101877.16
2022-08-12T13:43:40.613Z,101869.03
2022-08-12T13:46:09.324Z,101871.97
2022-08-12T13:48:45.302Z,101875.72
2022-08-12T13:51:14.187Z,101871.81
2022-08-12T13:53:58.910Z,101863.91
2022-08-12T13:56:35.131Z,101860.16
2022-08-12T13:59:07.737Z,101860.63
2022-08-12T14:01:40.557Z,101862.34
2022-08-12T14:04:11.563Z,101854.94
2022-08-12T14:06:40.699Z,101848.22
2022-08-12T14:09:15.706Z,101845.56
2022-08-12T14:11:54.817Z,101847.25
2022-08-12T14:14:31.596Z,101836.66
2022-08-12T14:17:08.155Z,101835.31
2022-08-12T14:20:00.561Z,101837.47
2022-08-12T14:22:28.968Z,101841.16
2022-08-12T14:25:00.527Z,101846.16
2022-08-12T14:27:55.453Z,101845.38
2022-08-12T14:30:29.392Z,101835.53
2022-08-12T14:33:02.899Z,101829.59
2022-08-12T14:35:41.311Z,101821.13
2022-08-12T14:38:25.938Z,101819.53
2022-08-12T14:40:58.565Z,101820.47
2022-08-12T14:43:59.323Z,101816.22
2022-08-12T14:46:24.004Z,101817.16
2022-08-12T14:48:55.908Z,101818.03
2022-08-12T14:52:48.247Z,101804.44
2022-08-12T14:57:20.570Z,101793.94
2022-08-12T15:00:09.224Z,101797.31
2022-08-12T15:02:39.356Z,101802.59
2022-08-12T15:05:08.305Z,101804.38
2022-08-12T15:07:49.989Z,101795.66
2022-08-12T15:10:32.029Z,101800.16
2022-08-12T15:13:06.780Z,101796.59
2022-08-12T15:15:44.263Z,101802.34
2022-08-12T15:18:21.348Z,101795.25
2022-08-12T15:20:51.302Z,101787.53
2022-08-12T15:23:24.480Z,101794.66
2022-08-12T15:26:02.498Z,101789.22
2022-08-12T15:28:34.931Z,101787.00
2022-08-12T15:31:21.319Z,101791.22
2022-08-12T15:33:55.212Z,101785.66
2022-08-12T15:36:54.962Z,101783.34
2022-08-12T15:39:17.014Z,101782.03
2022-08-12T15:41:50.004Z,101778.19
2022-08-12T15:44:42.169Z,101775.66
2022-08-12T15:47:09.035Z,101786.53
2022-08-12T15:49:54.131Z,101781.31
2022-08-12T15:52:28.507Z,101773.94
2022-08-12T15:55:06.154Z,101762.53
2022-08-12T15:57:53.615Z,101768.81
2022-08-12T16:00:33.383Z,101765.94
2022-08-12T16:03:05.366Z,101769.16
2022-08-12T16:06:12.030Z,101767.50
2022-08-12T16:08:27.700Z,101767.06
2022-08-12T16:10:57.809Z,101753.94
2022-08-12T16:13:34.229Z,101764.91
2022-08-12T16:16:22.812Z,101759.78
2022-08-12T16:18:59.616Z,101751.66
2022-08-12T16:21:52.421Z,101747.94
2022-08-12T16:24:18.525Z,101752.16
2022-08-12T16:26:51.526Z,101746.56
2022-08-12T16:29:26.392Z,101744.28
2022-08-12T16:31:58.558Z,101740.97
2022-08-12T16:34:42.464Z,101744.53
2022-08-12T16:37:15.993Z,101743.84
2022-08-12T16:39:59.710Z,101742.34
2022-08-12T16:42:31.036Z,101738.22
2022-08-12T16:45:02.685Z,101735.88
2022-08-12T16:47:57.660Z,101731.81
2022-08-12T16:50:31.258Z,101730.63
2022-08-12T16:53:02.449Z,101726.59
2022-08-12T16:55:42.429Z,101732.56
2022-08-12T16:58:28.534Z,101729.34
2022-08-12T17:01:01.963Z,101737.78
2022-08-12T17:03:36.680Z,101731.09
2022-08-12T17:06:08.993Z,101726.09
2022-08-12T17:08:39.270Z,101735.91
2022-08-12T17:11:18.011Z,101735.00
2022-08-12T17:13:53.609Z,101733.63
2022-08-12T17:16:24.162Z,101728.31
2022-08-12T17:18:59.731Z,101730.50
2022-08-12T17:21:41.674Z,101722.47
2022-08-12T17:24:30.573Z,101723.84
2022-08-12T17:27:00.803Z,101714.16
2022-08-12T17:30:00.366Z,101721.28
2022-08-12T17:32:28.021Z,101718.38
2022-08-12T17:35:14.517Z,101716.22
2022-08-12T17:37:42.999Z,101714.31
2022-08-12T17:40:20.791Z,101711.59
2022-08-12T17:43:03.140Z,101714.88
2022-08-12T17:45:53.282Z,101714.78
2022-08-12T17:48:24.030Z,101717.31
2022-08-12T17:51:06.978Z,101713.50
2022-08-12T17:54:06.150Z,101714.41
2022-08-12T17:56:31.961Z,101717.09
2022-08-12T17:59:01.628Z,101714.78
2022-08-12T18:01:35.675Z,101717.00
2022-08-12T18:04:21.619Z,101723.41
2022-08-12T18:06:51.731Z,101722.56
2022-08-12T18:09:21.806Z,101727.00
2022-08-12T18:12:11.771Z,101717.59
2022-08-12T18:14:41.113Z,101719.75
2022-08-12T18:17:13.860Z,101720.22
2022-08-12T18:20:04.358Z,101724.38
2022-08-12T18:22:32.954Z,101723.22
2022-08-12T18:25:04.764Z,101721.56
2022-08-12T18:27:44.164Z,101720.22
2022-08-12T18:30:20.943Z,101724.25
2022-08-12T18:33:03.893Z,101730.78
2022-08-12T18:35:47.572Z,101728.34
2022-08-12T18:38:25.093Z,101732.59
2022-08-12T18:41:21.950Z,101733.91
2022-08-12T18:43:59.908Z,101744.84
2022-08-12T18:46:35.750Z,101736.00
2022-08-12T18:49:18.959Z,101745.94
2022-08-12T18:52:03.817Z,101741.03
2022-08-12T18:54:36.357Z,101747.56
2022-08-12T18:57:16.595Z,101740.47
2022-08-12T19:00:01.681Z,101759.47
2022-08-12T19:02:39.627Z,101761.94
2022-08-12T19:05:12.314Z,101764.78
2022-08-12T19:07:57.909Z,101756.50
2022-08-12T19:10:30.961Z,101753.75
2022-08-12T19:13:23.004Z,101765.53
2022-08-12T19:15:54.316Z,101760.44
2022-08-12T19:18:29.880Z,101772.91
2022-08-12T19:21:11.621Z,101773.63
2022-08-12T19:23:40.661Z,101776.19
2022-08-12T19:26:10.717Z,101773.97
2022-08-12T19:28:42.708Z,101769.84
2022-08-12T19:31:44.889Z,101775.72
2022-08-12T19:35:06.590Z,101772.84
2022-08-12T19:37:26.622Z,101776.59
2022-08-12T19:40:09.104Z,101784.72
2022-08-12T19:42:53.368Z,101784.03
2022-08-12T19:45:22.450Z,101781.25
2022-08-12T19:47:50.718Z,101791.00
2022-08-12T19:50:20.012Z,101797.16
2022-08-12T19:52:51.199Z,101797.91
2022-08-12T19:55:24.153Z,101794.28
2022-08-12T19:58:01.453Z,101793.22
2022-08-12T20:00:34.538Z,101793.09
2022-08-12T20:03:06.376Z,101791.91
2022-08-12T20:06:05.076Z,101793.41
2022-08-12T20:08:34.351Z,101786.91
2022-08-12T20:12:11.083Z,101789.28
2022-08-12T20:13:57.979Z,101783.72
2022-08-12T20:16:57.427Z,101782.44
2022-08-12T20:19:52.770Z,101793.78
2022-08-12T20:22:24.816Z,101791.69
2022-08-12T20:25:01.676Z,101796.66
2022-08-12T20:28:02.750Z,101790.03
2022-08-12T20:30:37.822Z,101796.78
2022-08-12T20:33:19.144Z,101799.97
2022-08-12T20:36:13.289Z,101809.41
2022-08-12T20:38:47.750Z,101806.25
2022-08-12T20:41:19.477Z,101807.53
2022-08-12T20:43:50.382Z,101802.53
2022-08-12T20:46:19.452Z,101804.66
2022-08-12T20:48:54.293Z,101805.06
2022-08-12T20:51:23.746Z,101806.44
2022-08-12T20:53:59.099Z,101808.44
2022-08-12T20:56:34.614Z,101801.75
2022-08-12T20:59:05.961Z,101809.19
2022-08-12T21:01:47.589Z,101815.72
2022-08-12T21:04:44.247Z,101809.75
2022-08-12T21:07:13.916Z,101810.13
2022-08-12T21:09:47.505Z,101806.78
2022-08-12T21:12:31.517Z,101808.88
2022-08-12T21:15:24.175Z,101813.69
2022-08-12T21:18:11.663Z,101806.88
2022-08-12T21:20:53.073Z,101817.97
2022-08-12T21:23:23.412Z,101815.56
2022-08-12T21:25:52.438Z,101808.75
2022-08-12T21:28:30.719Z,101817.94
2022-08-12T21:32:37.727Z,101817.38
2022-08-12T21:34:07.260Z,101818.63
2022-08-12T21:36:43.057Z,101811.91
2022-08-12T21:39:18.445Z,101811.31
2022-08-12T21:41:51.513Z,101810.75
2022-08-12T21:44:32.515Z,101817.19
2022-08-12T21:47:19.945Z,101818.41
2022-08-12T21:49:55.246Z,101815.94
2022-08-12T21:52:34.949Z,101809.03
2022-08-12T21:55:20.165Z,101822.66
2022-08-12T21:57:53.555Z,101813.97
2022-08-12T22:00:31.798Z,101821.25
2022-08-12T22:03:25.075Z,101818.88
2022-08-12T22:06:31.304Z,101816.53
2022-08-12T22:09:16.437Z,101825.69
2022-08-12T22:11:49.378Z,101818.69
2022-08-12T22:14:28.381Z,101820.69
2022-08-12T22:17:01.399Z,101820.97
2022-08-12T22:19:33.733Z,101822.00
2022-08-12T22:22:05.098Z,101823.94
2022-08-12T22:24:33.822Z,101816.97
2022-08-12T22:27:14.427Z,101823.41
2022-08-12T22:30:16.895Z,101824.44
2022-08-12T22:32:49.999Z,101816.69
2022-08-12T22:35:55.636Z,101826.63
2022-08-12T22:38:26.347Z,101822.38
2022-08-12T22:40:58.389Z,101817.19
2022-08-12T22:43:59.599Z,101828.03
2022-08-12T22:46:53.552Z,101819.31
2022-08-12T22:49:26.044Z,101824.81
2022-08-12T22:52:13.509Z,101824.06
2022-08-12T22:54:57.996Z,101822.41
2022-08-12T22:57:53.851Z,101830.56
2022-08-12T23:00:27.581Z,101817.34
2022-08-12T23:03:02.896Z,101826.31
2022-08-12T23:05:57.275Z,101820.19
2022-08-12T23:08:31.869Z,101823.94
2022-08-12T23:11:00.561Z,101816.88
2022-08-12T23:13:54.654Z,101826.78
2022-08-12T23:16:29.235Z,101826.00
2022-08-12T23:19:09.629Z,101815.41
2022-08-12T23:22:04.465Z,101820.81
2022-08-12T23:24:31.614Z,101820.09
2022-08-12T23:27:22.385Z,101831.66
2022-08-12T23:30:17.613Z,101821.09
2022-08-12T23:32:38.942Z,101826.50
2022-08-12T23:35:08.675Z,101815.91
2022-08-12T23:37:47.783Z,101824.03
2022-08-12T23:40:24.288Z,101821.41
2022-08-12T23:42:54.310Z,101816.22
2022-08-12T23:45:31.602Z,101818.13
2022-08-12T23:48:02.751Z,101816.44
2022-08-12T23:50:33.818Z,101817.41
2022-08-12T23:53:14.032Z,101818.44
2022-08-12T23:55:45.618Z,101815.00
2022-08-12T23:58:21.614Z,101809.75
